Pagrindinis puslapis
METAR-TAF:

METAR-TAF

Oro uostai :

Ankoridžas, Aliaska, Jungtinės Amerikos Valstijos

platuma: 61-11N, ilguma: 149-58W, Aukštis: 22 m

Dabartinis oras

Ataskaita buvo paskelbta 19 minutes, ne 17:53 UTC
Ramus vėjas
Temperatūra -4°C
Drėgmė 86%
Slėgis 1031 hPa
Matomumas: 16.1 km
Giedras dangus

METAR: PALH 221753Z AUTO 00000KT 10SM CLR M04/M06 A3046 RMK AO2 SLP315 I6000 T10441061 11039 21061 50000 TSNO

Laikas: 10:12 (18:12 UTC)


TAF: trūkstamas

Orai ataskaitas ir orų prognozės (METAR, TAF).

turimą stotys yra geltonos ir raudonos taškus žemėlapyje.

Perkelti pele per norėdami pamatyti stoties vardą.

Tada spustelėkite, norėdami matyti oro stebėjimo ir prognozės.

Norėdami pakeisti žemėlapį: spustelėkite ant žalios mygtukų su juodo kryžiaus žemyn,; žalią mygtuką su brūkšneliu, jei norite nutolinti; arba žalių rodyklių gretimoms žemėlapius.


METAR-TAF: